Time;durP1;ratioP1;P1;durP2;ratioP2;P2;SDS_P1;SDS_P2;PMS_P1;PMS_P2;Temp;Humidity;BMP_temperature;BMP_pressure;BME280_temperature;BME280_humidity;BME280_pressure;Samples;Min_cycle;Max_cycle;Signal;HPM_P1;HPM_P2
2022/01/10 00:01:12;;;;;;;13.48;8.60;;;;;;;;;;5022278;28;20212;-86
2022/01/10 00:03:40;;;;;;;9.02;8.13;;;;;;;;;;5026559;28;20247;-86
2022/01/10 00:06:07;;;;;;;10.40;7.95;;;;;;;;;;5021610;28;20212;-87
2022/01/10 00:08:34;;;;;;;10.88;8.20;;;;;;;;;;5017699;28;20213;-87
2022/01/10 00:11:03;;;;;;;9.93;7.85;;;;;;;;;;5022175;28;20295;-87
2022/01/10 00:13:30;;;;;;;8.82;7.93;;;;;;;;;;5020498;28;20216;-87
2022/01/10 00:15:57;;;;;;;10.07;7.53;;;;;;;;;;5015760;28;20264;-87
2022/01/10 00:18:24;;;;;;;10.48;7.78;;;;;;;;;;5020303;28;20217;-87
2022/01/10 00:20:51;;;;;;;9.02;8.10;;;;;;;;;;5021971;28;20246;-86
2022/01/10 00:23:19;;;;;;;10.60;8.40;;;;;;;;;;5021173;28;20262;-87
2022/01/10 00:25:46;;;;;;;8.93;8.13;;;;;;;;;;5019650;28;20572;-86
2022/01/10 00:28:15;;;;;;;9.60;7.70;;;;;;;;;;5020853;28;20623;-86
2022/01/10 00:30:42;;;;;;;10.30;8.32;;;;;;;;;;5018836;28;20288;-86
2022/01/10 00:33:09;;;;;;;9.88;8.88;;;;;;;;;;5024213;28;20240;-86
2022/01/10 00:35:36;;;;;;;12.38;9.18;;;;;;;;;;5024067;28;20272;-85
2022/01/10 00:38:04;;;;;;;10.52;8.73;;;;;;;;;;5019494;28;20204;-86
2022/01/10 00:40:31;;;;;;;11.32;8.85;;;;;;;;;;5019057;28;20292;-85
2022/01/10 00:42:58;;;;;;;9.93;8.63;;;;;;;;;;5025319;28;20232;-84
2022/01/10 00:45:28;;;;;;;9.20;7.45;;;2.00;99.90;;;;;;5015795;28;20722;-85
2022/01/10 00:47:57;;;;;;;9.50;7.93;;;2.00;99.90;;;;;;5017389;28;20219;-86
2022/01/10 00:50:25;;;;;;;10.23;8.68;;;;;;;;;;5022879;28;20209;-85
2022/01/10 00:52:52;;;;;;;9.25;7.03;;;;;;;;;;5020751;28;20204;-85
2022/01/10 00:55:19;;;;;;;11.40;9.38;;;;;;;;;;5022610;28;20271;-86
2022/01/10 00:57:47;;;;;;;9.57;8.77;;;;;;;;;;5022494;28;20274;-85
2022/01/10 01:00:16;;;;;;;13.90;9.52;;;2.00;99.90;;;;;;5020287;28;20197;-85
2022/01/10 01:02:44;;;;;;;11.40;9.15;;;;;;;;;;5023269;28;20239;-85
2022/01/10 01:05:16;;;;;;;11.25;9.55;;;2.00;99.90;;;;;;5022534;28;20205;-84
2022/01/10 01:07:44;;;;;;;9.25;8.35;;;;;;;;;;5023867;28;20213;-84
2022/01/10 01:10:41;;;;;;;9.95;8.23;;;1.90;99.90;;;;;;5021356;28;20221;-85
2022/01/10 01:13:23;;;;;;;10.45;8.60;;;2.00;99.90;;;;;;5020385;28;20211;-85
2022/01/10 01:16:08;;;;;;;10.63;7.38;;;;;;;;;;5024488;28;20204;-85
2022/01/10 01:19:06;;;;;;;10.02;8.25;;;2.00;99.90;;;;;;5021167;28;20281;-85
2022/01/10 01:24:20;;;;;;;11.82;8.65;;;;;;;;;;5018225;28;20334;-85
2022/01/10 01:26:50;;;;;;;10.75;7.85;;;2.00;99.90;;;;;;5009745;28;20239;-85
2022/01/10 01:29:21;;;;;;;9.57;7.70;;;2.00;99.90;;;;;;5018667;28;20243;-86
2022/01/10 01:31:48;;;;;;;8.93;7.03;;;;;;;;;;5018478;28;20263;-85
2022/01/10 01:34:18;;;;;;;9.77;7.55;;;2.00;99.90;;;;;;5022051;28;20227;-86
2022/01/10 01:36:50;;;;;;;8.25;6.65;;;2.00;99.90;;;;;;5020080;28;20209;-85
2022/01/10 01:39:20;;;;;;;8.45;7.55;;;;;;;;;;5020452;28;20864;-85
2022/01/10 01:41:48;;;;;;;10.90;8.10;;;2.00;99.90;;;;;;5020823;28;20213;-85
2022/01/10 01:44:16;;;;;;;8.10;7.13;;;1.70;99.90;;;;;;5024333;28;20752;-85
2022/01/10 01:46:43;;;;;;;8.10;7.25;;;;;;;;;;5018164;28;20212;-86
2022/01/10 01:49:14;;;;;;;8.60;7.57;;;2.00;99.90;;;;;;5016977;28;20224;-85
2022/01/10 01:51:43;;;;;;;7.72;6.93;;;;;;;;;;5018343;28;20216;-85
2022/01/10 01:54:10;;;;;;;10.73;7.97;;;;;;;;;;5020786;28;20247;-85
2022/01/10 01:56:38;;;;;;;8.18;6.15;;;;;;;;;;5020953;28;20222;-85
2022/01/10 01:59:05;;;;;;;9.93;7.75;;;;;;;;;;5020659;28;20565;-85
2022/01/10 02:01:32;;;;;;;12.70;8.25;;;;;;;;;;5021133;28;20207;-84
2022/01/10 02:04:00;;;;;;;10.20;7.47;;;;;;;;;;5016896;28;20603;-85
2022/01/10 02:06:27;;;;;;;9.98;8.20;;;;;;;;;;5016099;28;20237;-85
2022/01/10 02:08:57;;;;;;;9.63;7.80;;;;;;;;;;5018952;28;20230;-85
2022/01/10 02:11:25;;;;;;;9.45;8.15;;;;;;;;;;5020812;28;20236;-85
2022/01/10 02:13:52;;;;;;;8.95;6.53;;;;;;;;;;5020097;28;20824;-84
2022/01/10 02:16:31;;;;;;;9.55;7.00;;;;;;;;;;5016834;28;20213;-85
2022/01/10 02:18:59;;;;;;;9.32;6.43;;;;;;;;;;5020354;28;20208;-85
2022/01/10 02:21:28;;;;;;;9.05;6.50;;;;;;;;;;5013616;28;20312;-85
2022/01/10 02:23:57;;;;;;;11.20;7.95;;;;;;;;;;5016596;28;20291;-85
2022/01/10 02:26:25;;;;;;;9.70;7.25;;;;;;;;;;5023350;28;20213;-85
2022/01/10 02:28:53;;;;;;;9.85;8.77;;;;;;;;;;5013663;28;20263;-85
2022/01/10 02:31:20;;;;;;;9.20;7.20;;;;;;;;;;5024678;28;20737;-85
2022/01/10 02:33:51;;;;;;;8.50;7.63;;;;;;;;;;5023916;28;20213;-84
2022/01/10 02:36:24;;;;;;;8.05;7.32;;;;;;;;;;5024609;28;20213;-85
2022/01/10 02:38:53;;;;;;;7.10;6.32;;;1.90;99.90;;;;;;5024542;28;20701;-84
2022/01/10 02:41:22;;;;;;;10.55;7.55;;;;;;;;;;5022538;28;20205;-83
2022/01/10 02:43:49;;;;;;;7.03;6.32;;;;;;;;;;5023146;28;20204;-85
2022/01/10 02:46:16;;;;;;;7.07;6.38;;;;;;;;;;5023744;28;20682;-85
2022/01/10 02:48:44;;;;;;;9.00;7.75;;;;;;;;;;5021804;28;20825;-85
2022/01/10 02:51:11;;;;;;;6.18;5.57;;;;;;;;;;5019409;28;20204;-85
2022/01/10 02:53:39;;;;;;;7.00;6.15;;;;;;;;;;5023707;28;20217;-85
2022/01/10 02:56:07;;;;;;;8.18;6.25;;;;;;;;;;5024622;28;20206;-85
2022/01/10 02:58:35;;;;;;;8.05;6.45;;;;;;;;;;5025478;28;20244;-85
2022/01/10 03:01:02;;;;;;;8.60;6.32;;;;;;;;;;5020906;28;20209;-85
2022/01/10 03:03:30;;;;;;;7.63;6.32;;;;;;;;;;5023616;28;20223;-85
2022/01/10 03:05:57;;;;;;;10.73;7.60;;;;;;;;;;5020022;28;20286;-84
2022/01/10 03:08:26;;;;;;;8.77;7.88;;;2.00;99.90;;;;;;5016726;28;20290;-84
2022/01/10 03:10:53;;;;;;;6.70;5.85;;;;;;;;;;5027050;28;20224;-84
2022/01/10 03:13:22;;;;;;;9.55;7.22;;;;;;;;;;5024264;28;20208;-85
2022/01/10 03:15:50;;;;;;;9.75;6.82;;;;;;;;;;5013911;28;20725;-85
2022/01/10 03:18:17;;;;;;;8.38;6.10;;;;;;;;;;5022706;28;20217;-85
2022/01/10 03:20:44;;;;;;;8.40;6.50;;;;;;;;;;5025197;28;20196;-85
2022/01/10 03:23:11;;;;;;;9.32;6.80;;;;;;;;;;5020584;28;20220;-85
2022/01/10 03:25:39;;;;;;;7.30;6.60;;;;;;;;;;5023433;28;20219;-85
2022/01/10 03:28:10;;;;;;;7.72;6.55;;;;;;;;;;5022524;28;20205;-85
2022/01/10 03:30:39;;;;;;;8.13;6.18;;;;;;;;;;5024246;28;20224;-84
2022/01/10 03:33:08;;;;;;;7.35;6.47;;;;;;;;;;5020858;28;20636;-84
2022/01/10 03:35:35;;;;;;;8.43;6.47;;;;;;;;;;5022844;28;20252;-85
2022/01/10 03:38:02;;;;;;;7.82;6.30;;;;;;;;;;5021778;28;20200;-85
2022/01/10 03:40:30;;;;;;;9.90;6.43;;;;;;;;;;5021572;28;20202;-85
2022/01/10 03:42:57;;;;;;;9.95;6.80;;;;;;;;;;5021692;28;20212;-84
2022/01/10 03:45:24;;;;;;;7.75;6.95;;;;;;;;;;5019759;28;20224;-86
2022/01/10 03:47:53;;;;;;;7.15;6.50;;;;;;;;;;5018044;28;20205;-85
2022/01/10 03:50:20;;;;;;;9.80;7.65;;;;;;;;;;5014009;28;20225;-85
2022/01/10 03:52:47;;;;;;;9.05;6.75;;;;;;;;;;5018427;28;20288;-85
2022/01/10 03:55:15;;;;;;;7.60;6.03;;;;;;;;;;5023971;28;20207;-86
2022/01/10 03:57:42;;;;;;;7.97;6.13;;;;;;;;;;5023120;28;20205;-85
2022/01/10 04:00:11;;;;;;;9.45;7.13;;;2.20;99.90;;;;;;5022045;28;20210;-85
2022/01/10 04:02:39;;;;;;;8.13;6.30;;;;;;;;;;5019306;28;20205;-85
2022/01/10 04:05:09;;;;;;;8.38;5.93;;;;;;;;;;5020276;28;20208;-85
2022/01/10 04:07:37;;;;;;;5.80;5.20;;;;;;;;;;5021672;28;20209;-85
2022/01/10 04:10:04;;;;;;;9.20;6.05;;;;;;;;;;5022373;28;20241;-85
2022/01/10 04:12:32;;;;;;;6.82;6.00;;;;;;;;;;5017995;28;20233;-84
2022/01/10 04:14:59;;;;;;;5.90;5.32;;;;;;;;;;5021743;28;21005;-84
2022/01/10 04:17:26;;;;;;;7.35;5.40;;;;;;;;;;5018432;28;20272;-85
2022/01/10 04:19:54;;;;;;;11.60;4.47;;;;;;;;;;5022862;28;20196;-85
2022/01/10 04:22:22;;;;;;;7.80;5.65;;;;;;;;;;5015651;28;20213;-85
2022/01/10 04:24:50;;;;;;;9.45;5.78;;;;;;;;;;5019416;28;20205;-85
2022/01/10 04:27:17;;;;;;;8.80;5.40;;;;;;;;;;5018667;28;20221;-85
2022/01/10 04:29:44;;;;;;;7.95;5.38;;;;;;;;;;5021017;28;20229;-85
2022/01/10 04:32:12;;;;;;;14.32;6.35;;;;;;;;;;5017600;28;20282;-85
2022/01/10 04:34:39;;;;;;;6.18;5.57;;;;;;;;;;5019026;28;20205;-85
2022/01/10 04:37:07;;;;;;;7.25;5.93;;;2.20;99.90;;;;;;5016713;28;20220;-85
2022/01/10 04:39:36;;;;;;;8.60;5.47;;;;;;;;;;5018193;28;20205;-84
2022/01/10 04:42:04;;;;;;;7.35;5.30;;;2.10;99.90;;;;;;5021454;28;20226;-84
2022/01/10 04:44:31;;;;;;;11.75;6.45;;;;;;;;;;5023105;28;20201;-85
2022/01/10 04:46:58;;;;;;;8.45;6.85;;;;;;;;;;5018405;28;21022;-85
2022/01/10 04:49:26;;;;;;;6.15;5.55;;;;;;;;;;5022171;28;20270;-85
2022/01/10 04:51:54;;;;;;;8.18;5.90;;;2.30;99.90;;;;;;5020788;28;20237;-85
2022/01/10 04:54:22;;;;;;;13.27;5.82;;;;;;;;;;5020245;28;20215;-85
2022/01/10 04:56:51;;;;;;;10.45;5.35;;;;;;;;;;5022205;28;20209;-85
2022/01/10 04:59:18;;;;;;;9.98;6.70;;;;;;;;;;5018589;28;20221;-85
2022/01/10 05:01:45;;;;;;;8.38;6.47;;;;;;;;;;5023470;28;20213;-85
2022/01/10 05:04:13;;;;;;;9.85;6.15;;;;;;;;;;5016858;28;20215;-85
2022/01/10 05:06:42;;;;;;;8.93;6.15;;;;;;;;;;5010531;28;20237;-84
2022/01/10 05:09:09;;;;;;;9.18;6.03;;;;;;;;;;5022326;28;20235;-85
2022/01/10 05:11:39;;;;;;;8.05;6.32;;;;;;;;;;5022455;28;20282;-84
2022/01/10 05:14:08;;;;;;;12.18;6.25;;;;;;;;;;5021521;28;20598;-84
2022/01/10 05:16:35;;;;;;;9.02;5.97;;;;;;;;;;5020491;28;20224;-84
2022/01/10 05:19:02;;;;;;;10.95;6.07;;;;;;;;;;5017974;28;20685;-85
2022/01/10 05:21:30;;;;;;;12.55;6.07;;;;;;;;;;5021427;28;20205;-85
2022/01/10 05:23:57;;;;;;;7.82;6.50;;;;;;;;;;5020202;28;20221;-85
2022/01/10 05:26:27;;;;;;;12.68;6.78;;;;;;;;;;5019321;28;20206;-86
2022/01/10 05:28:55;;;;;;;10.35;7.28;;;;;;;;;;5021114;28;20624;-85
2022/01/10 05:31:23;;;;;;;7.05;5.72;;;;;;;;;;5023767;28;20286;-85
2022/01/10 05:33:51;;;;;;;9.45;6.78;;;;;;;;;;5015537;28;20304;-85
2022/01/10 05:36:18;;;;;;;8.75;7.13;;;;;;;;;;5018297;28;20747;-87
2022/01/10 05:38:46;;;;;;;8.52;6.47;;;;;;;;;;5018787;28;20208;-87
2022/01/10 05:41:13;;;;;;;8.63;5.97;;;;;;;;;;5017949;28;20197;-87
2022/01/10 05:43:40;;;;;;;11.90;7.55;;;;;;;;;;5021046;28;20242;-86
2022/01/10 05:46:09;;;;;;;13.43;7.97;;;;;;;;;;5019285;28;20209;-87
2022/01/10 05:48:40;;;;;;;8.60;7.00;;;2.40;99.90;;;;;;5020164;28;20254;-87
2022/01/10 05:51:07;;;;;;;11.13;7.57;;;;;;;;;;5021173;28;20221;-87
2022/01/10 05:53:35;;;;;;;10.70;7.15;;;;;;;;;;5019215;28;20209;-87
2022/01/10 05:56:02;;;;;;;11.18;8.07;;;;;;;;;;5019252;28;20554;-87
2022/01/10 05:58:30;;;;;;;11.63;8.23;;;;;;;;;;5021730;28;20216;-87
2022/01/10 06:00:57;;;;;;;19.58;9.10;;;;;;;;;;5021036;28;20667;-87
2022/01/10 06:03:25;;;;;;;11.45;7.68;;;;;;;;;;5017078;28;20291;-87
2022/01/10 06:05:53;;;;;;;15.15;8.02;;;;;;;;;;5018637;28;20295;-87
2022/01/10 06:08:21;;;;;;;10.98;7.00;;;;;;;;;;5026860;28;20224;-87
2022/01/10 06:10:48;;;;;;;11.18;6.82;;;;;;;;;;5015698;28;20220;-86
2022/01/10 06:13:15;;;;;;;15.20;8.90;;;;;;;;;;5028043;28;20205;-86
2022/01/10 06:15:43;;;;;;;13.32;9.50;;;;;;;;;;5025384;28;20204;-86
2022/01/10 06:18:10;;;;;;;10.85;8.52;;;;;;;;;;5021917;28;20216;-86
2022/01/10 06:20:38;;;;;;;14.27;9.23;;;2.50;99.90;;;;;;5026404;28;20753;-87
2022/01/10 06:23:09;;;;;;;15.57;8.80;;;;;;;;;;5024941;28;20215;-87
2022/01/10 06:25:36;;;;;;;13.18;8.52;;;;;;;;;;5019889;28;20208;-87
2022/01/10 06:28:04;;;;;;;10.52;7.32;;;;;;;;;;5029595;28;20236;-87
2022/01/10 06:30:31;;;;;;;11.75;7.05;;;;;;;;;;5029851;28;20701;-87
2022/01/10 06:32:59;;;;;;;14.63;7.57;;;;;;;;;;5024022;28;20581;-87
2022/01/10 06:35:26;;;;;;;13.13;8.60;;;;;;;;;;5026742;28;20236;-86
2022/01/10 06:37:53;;;;;;;14.73;8.63;;;;;;;;;;5020397;28;20263;-87
2022/01/10 06:40:22;;;;;;;11.73;8.80;;;;;;;;;;5024482;28;20213;-86
2022/01/10 06:42:50;;;;;;;16.05;9.48;;;;;;;;;;5031333;28;20205;-87
2022/01/10 06:45:17;;;;;;;21.45;10.20;;;;;;;;;;5031880;28;20291;-86
2022/01/10 06:47:45;;;;;;;15.10;8.85;;;;;;;;;;5024475;28;20213;-86
2022/01/10 06:50:15;;;;;;;14.20;8.98;;;;;;;;;;5024751;28;20329;-87
2022/01/10 06:52:42;;;;;;;14.38;9.57;;;;;;;;;;5021344;28;20233;-86
2022/01/10 06:55:11;;;;;;;13.10;9.65;;;;;;;;;;5020869;28;20308;-87
2022/01/10 06:57:40;;;;;;;18.08;10.93;;;;;;;;;;5025924;28;20580;-87
2022/01/10 07:00:08;;;;;;;21.27;11.07;;;;;;;;;;5026490;28;20196;-87
2022/01/10 07:02:38;;;;;;;14.43;8.75;;;;;;;;;;5024865;28;20208;-89
2022/01/10 07:05:06;;;;;;;13.23;8.52;;;;;;;;;;5021731;28;20208;-89
2022/01/10 07:07:33;;;;;;;13.02;8.90;;;;;;;;;;5022934;28;20209;-89
2022/01/10 07:10:00;;;;;;;18.25;10.95;;;;;;;;;;5019234;28;20759;-89
2022/01/10 07:12:28;;;;;;;16.08;9.25;;;;;;;;;;5024021;28;20283;-89
2022/01/10 07:14:56;;;;;;;15.63;9.90;;;;;;;;;;5022808;28;20208;-86
2022/01/10 07:17:24;;;;;;;16.27;9.63;;;;;;;;;;5026449;28;20231;-86
2022/01/10 07:19:54;;;;;;;14.98;10.48;;;;;;;;;;5023516;28;20271;-87
2022/01/10 07:22:21;;;;;;;14.38;8.77;;;;;;;;;;5026208;28;20295;-87
2022/01/10 07:24:48;;;;;;;16.52;9.95;;;;;;;;;;5019456;28;20328;-88
2022/01/10 07:27:16;;;;;;;20.80;9.55;;;;;;;;;;5023216;28;20578;-89
2022/01/10 07:29:46;;;;;;;20.83;10.07;;;;;;;;;;5028384;28;20302;-88
2022/01/10 07:32:15;;;;;;;13.68;9.68;;;;;;;;;;5022840;28;20215;-89
2022/01/10 07:34:43;;;;;;;19.17;12.02;;;;;;;;;;5029571;28;20262;-88
2022/01/10 07:37:10;;;;;;;21.55;10.05;;;;;;;;;;5020370;28;20220;-88
2022/01/10 07:39:37;;;;;;;20.70;11.90;;;;;;;;;;5022794;28;20216;-88
2022/01/10 07:42:05;;;;;;;17.30;10.30;;;;;;;;;;5020970;28;20208;-88
2022/01/10 07:44:32;;;;;;;21.67;9.27;;;;;;;;;;5020489;28;20215;-88
2022/01/10 07:47:00;;;;;;;21.15;10.82;;;;;;;;;;5022768;28;20213;-88
2022/01/10 07:49:31;;;;;;;16.25;10.40;;;;;;;;;;5022902;28;20682;-88
2022/01/10 07:51:58;;;;;;;18.85;11.00;;;;;;;;;;5022207;28;20225;-88
2022/01/10 07:54:25;;;;;;;17.63;11.27;;;;;;;;;;5025754;28;20204;-88
2022/01/10 07:56:53;;;;;;;20.60;10.90;;;;;;;;;;5022935;28;20650;-88
2022/01/10 07:59:21;;;;;;;19.73;12.05;;;;;;;;;;5020225;28;20240;-88
2022/01/10 08:01:48;;;;;;;16.25;10.40;;;;;;;;;;5027134;28;20201;-86
2022/01/10 08:04:16;;;;;;;20.50;10.18;;;;;;;;;;5024486;28;20213;-87
2022/01/10 08:06:44;;;;;;;15.27;9.05;;;;;;;;;;5020593;28;20209;-88
2022/01/10 08:09:14;;;;;;;16.05;9.32;;;;;;;;;;5025792;28;20211;-89
2022/01/10 08:11:43;;;;;;;17.98;8.52;;;;;;;;;;5023110;28;20233;-88
2022/01/10 08:14:10;;;;;;;25.42;9.85;;;;;;;;;;5021195;28;20192;-87
2022/01/10 08:16:37;;;;;;;20.10;11.32;;;;;;;;;;5019542;28;20303;-88
2022/01/10 08:19:06;;;;;;;21.75;9.93;;;;;;;;;;5023250;28;20215;-87
2022/01/10 08:21:33;;;;;;;19.55;10.05;;;;;;;;;;5023355;28;20201;-87
2022/01/10 08:24:02;;;;;;;24.77;11.30;;;;;;;;;;5022199;28;20227;-88
2022/01/10 08:26:29;;;;;;;19.92;10.07;;;;;;;;;;5021593;28;20217;-88
2022/01/10 08:28:56;;;;;;;13.70;8.40;;;;;;;;;;5021383;28;20213;-88
2022/01/10 08:31:23;;;;;;;20.60;11.32;;;;;;;;;;5021697;28;20232;-88
2022/01/10 08:33:51;;;;;;;17.52;8.90;;;;;;;;;;5024007;28;20209;-87
2022/01/10 08:36:19;;;;;;;18.23;9.90;;;;;;;;;;5017601;28;20220;-88
2022/01/10 08:38:49;;;;;;;22.77;11.35;;;;;;;;;;5021021;28;20726;-86
2022/01/10 08:41:18;;;;;;;16.65;8.88;;;;;;;;;;5023146;28;20216;-87
2022/01/10 08:43:45;;;;;;;20.73;10.88;;;;;;;;;;5021366;28;20208;-86
2022/01/10 08:46:12;;;;;;;19.00;9.00;;;;;;;;;;5022553;28;20252;-87
2022/01/10 08:48:40;;;;;;;16.92;10.02;;;;;;;;;;5021778;28;20267;-88
2022/01/10 08:51:10;;;;;;;17.52;10.15;;;;;;;;;;5022563;28;20225;-88
2022/01/10 08:53:37;;;;;;;20.77;12.23;;;;;;;;;;5027563;28;20207;-87
2022/01/10 08:56:05;;;;;;;15.93;11.40;;;;;;;;;;5020879;28;20287;-88
2022/01/10 08:58:33;;;;;;;16.30;9.63;;;;;;;;;;5024289;28;20553;-88
2022/01/10 09:01:01;;;;;;;13.07;9.82;;;;;;;;;;5023584;28;20212;-88
2022/01/10 09:03:30;;;;;;;21.83;10.15;;;;;;;;;;5022025;28;20211;-88
2022/01/10 09:05:58;;;;;;;19.00;11.38;;;;;;;;;;5025455;28;20216;-88
2022/01/10 09:08:25;;;;;;;13.40;8.90;;;;;;;;;;5024824;28;20882;-88
2022/01/10 09:10:53;;;;;;;22.77;10.93;;;;;;;;;;5024221;28;20227;-88
2022/01/10 09:13:21;;;;;;;24.35;11.55;;;;;;;;;;5022831;28;20217;-88
2022/01/10 09:15:49;;;;;;;15.18;10.02;;;;;;;;;;5025356;28;20212;-88
2022/01/10 09:18:17;;;;;;;14.50;9.93;;;;;;;;;;5021363;28;20666;-88
2022/01/10 09:20:45;;;;;;;22.35;9.75;;;2.40;99.90;;;;;;5020340;28;20188;-88
2022/01/10 09:23:12;;;;;;;19.70;12.38;;;;;;;;;;5025661;28;20220;-88
2022/01/10 09:25:39;;;;;;;21.80;12.02;;;;;;;;;;5019874;28;20324;-88
2022/01/10 09:28:07;;;;;;;17.40;9.60;;;;;;;;;;5022660;28;20197;-88
2022/01/10 09:30:34;;;;;;;17.38;10.38;;;;;;;;;;5024056;28;20659;-88
2022/01/10 09:33:05;;;;;;;14.98;11.45;;;;;;;;;;5020716;28;20223;-88
2022/01/10 09:35:32;;;;;;;13.73;10.57;;;;;;;;;;5021806;28;20679;-88
2022/01/10 09:37:59;;;;;;;20.05;10.38;;;;;;;;;;5021006;28;20197;-87
2022/01/10 09:40:27;;;;;;;19.13;10.55;;;;;;;;;;5022376;28;20763;-88
2022/01/10 09:42:54;;;;;;;19.98;11.35;;;;;;;;;;5020321;28;20212;-88
2022/01/10 09:45:21;;;;;;;19.13;10.48;;;;;;;;;;5024545;28;20236;-87
2022/01/10 09:47:49;;;;;;;20.00;9.95;;;;;;;;;;5022592;28;20685;-87
2022/01/10 09:50:17;;;;;;;18.95;11.23;;;;;;;;;;5019209;28;20579;-86
2022/01/10 09:52:47;;;;;;;23.10;11.77;;;2.90;99.90;;;;;;5016913;28;20224;-86
2022/01/10 09:55:14;;;;;;;16.63;10.73;;;;;;;;;;5023005;28;20220;-85
2022/01/10 09:57:42;;;;;;;20.33;12.27;;;;;;;;;;5016639;28;20213;-86
2022/01/10 10:00:11;;;;;;;20.65;11.95;;;;;;;;;;5023428;28;20646;-87
2022/01/10 10:02:40;;;;;;;21.30;11.30;;;3.10;99.90;;;;;;5021748;28;20201;-87
2022/01/10 10:05:10;;;;;;;21.52;11.55;;;3.20;99.90;;;;;;5022189;28;20200;-87
2022/01/10 10:07:39;;;;;;;19.73;11.63;;;;;;;;;;5017784;28;20209;-86
2022/01/10 10:10:11;;;;;;;23.75;13.30;;;;;;;;;;5023079;28;20200;-87
2022/01/10 10:12:40;;;;;;;21.40;11.77;;;;;;;;;;5023767;28;20228;-86
2022/01/10 10:15:11;;;;;;;21.05;12.50;;;3.10;99.90;;;;;;5016244;28;20213;-86
2022/01/10 10:17:38;;;;;;;21.73;12.63;;;;;;;;;;5020141;28;20251;-86
2022/01/10 10:20:09;;;;;;;20.55;10.98;;;;;;;;;;5023245;28;20284;-87
2022/01/10 10:22:36;;;;;;;16.05;11.15;;;;;;;;;;5021244;28;20208;-87
2022/01/10 10:25:07;;;;;;;21.10;12.00;;;;;;;;;;5024079;28;20651;-86
2022/01/10 10:27:36;;;;;;;21.80;11.02;;;;;;;;;;5019034;28;20267;-86
2022/01/10 10:30:05;;;;;;;20.23;11.23;;;;;;;;;;5016139;28;20232;-86
2022/01/10 10:32:33;;;;;;;19.83;11.20;;;;;;;;;;5022997;28;20315;-87
2022/01/10 10:35:01;;;;;;;14.98;10.75;;;;;;;;;;5018607;28;20619;-85
2022/01/10 10:37:29;;;;;;;21.77;11.98;;;;;;;;;;5021947;28;20204;-87
2022/01/10 10:39:58;;;;;;;19.98;10.40;;;3.10;99.90;;;;;;5021582;28;20345;-87
2022/01/10 10:42:29;;;;;;;16.80;10.40;;;3.20;99.90;;;;;;5020808;28;20193;-86
2022/01/10 10:44:57;;;;;;;20.80;11.23;;;;;;;;;;5027063;28;20217;-86
2022/01/10 10:47:28;;;;;;;18.17;12.40;;;3.40;99.90;;;;;;5020863;28;20212;-86
2022/01/10 10:49:59;;;;;;;18.40;11.90;;;3.30;99.90;;;;;;5021388;28;20204;-86
2022/01/10 10:52:31;;;;;;;19.02;12.77;;;;;;;;;;5021887;28;20285;-86
2022/01/10 10:55:02;;;;;;;16.67;12.05;;;;;;;;;;5025682;28;20671;-86
2022/01/10 10:57:32;;;;;;;20.10;11.80;;;;;;;;;;5020293;28;20319;-86
2022/01/10 11:00:02;;;;;;;18.55;11.63;;;3.30;99.90;;;;;;5025951;28;20287;-87
2022/01/10 11:02:29;;;;;;;19.13;13.20;;;;;;;;;;5025053;28;20777;-87
2022/01/10 11:05:01;;;;;;;23.27;12.25;;;;;;;;;;5024896;28;20209;-87
2022/01/10 11:07:31;;;;;;;14.57;11.00;;;;;;;;;;5025092;28;20219;-87
2022/01/10 11:09:58;;;;;;;16.67;11.07;;;;;;;;;;5022160;28;20582;-87
2022/01/10 11:12:27;;;;;;;18.92;11.15;;;3.60;99.90;;;;;;5021558;28;20248;-87
2022/01/10 11:14:59;;;;;;;18.55;9.82;;;3.50;99.90;;;;;;5024619;28;20455;-87
2022/01/10 11:17:26;;;;;;;20.45;11.15;;;;;;;;;;5022997;28;20227;-86
2022/01/10 11:20:10;;;;;;;15.27;10.23;;;;;;;;;;5025859;28;20205;-87
2022/01/10 11:22:38;;;;;;;25.88;12.10;;;;;;;;;;5012362;28;20209;-86
2022/01/10 11:25:18;;;;;;;19.17;10.45;;;3.50;99.90;;;;;;5022415;28;20278;-87
2022/01/10 11:27:45;;;;;;;16.15;11.20;;;;;;;;;;5029107;28;20196;-86
2022/01/10 11:30:30;;;;;;;19.27;12.35;;;3.70;99.90;;;;;;5023359;28;21171;-86
2022/01/10 11:33:03;;;;;;;14.93;10.85;;;3.70;99.90;;;;;;5021944;28;20678;-86
2022/01/10 11:35:31;;;;;;;17.52;10.38;;;3.80;99.90;;;;;;5030646;28;20208;-86
2022/01/10 11:37:59;;;;;;;21.25;12.05;;;;;;;;;;5020270;28;20212;-86
2022/01/10 11:40:26;;;;;;;16.48;10.60;;;;;;;;;;5025883;28;20560;-85
2022/01/10 11:42:55;;;;;;;17.00;10.25;;;3.90;99.90;;;;;;5027269;28;20200;-86
2022/01/10 11:45:23;;;;;;;20.13;11.00;;;;;;;;;;5021573;28;20302;-88
2022/01/10 11:48:16;;;;;;;21.42;11.25;;;4.00;99.90;;;;;;5022270;28;20200;-88
2022/01/10 11:50:44;;;;;;;16.65;11.95;;;;;;;;;;5022870;28;20227;-87
2022/01/10 11:53:13;;;;;;;21.15;10.60;;;;;;;;;;5021570;28;20226;-87
2022/01/10 11:55:44;;;;;;;18.80;10.35;;;3.90;99.90;;;;;;5020392;28;20299;-87
2022/01/10 11:58:17;;;;;;;18.45;11.32;;;4.10;99.90;;;;;;5019275;28;20220;-87
2022/01/10 12:00:44;;;;;;;16.38;10.45;;;;;;;;;;5024106;28;20205;-87
2022/01/10 12:03:11;;;;;;;17.98;11.15;;;;;;;;;;5021519;28;20204;-87
2022/01/10 12:05:40;;;;;;;19.17;10.32;;;;;;;;;;5020853;28;20209;-87
2022/01/10 12:08:08;;;;;;;18.88;10.93;;;;;;;;;;5022964;28;20201;-87
2022/01/10 12:10:35;;;;;;;19.58;10.20;;;;;;;;;;5023343;28;20266;-87
2022/01/10 12:13:05;;;;;;;15.73;9.98;;;;;;;;;;5021885;28;20287;-87
2022/01/10 12:15:33;;;;;;;15.18;9.93;;;;;;;;;;5024836;28;20204;-87
2022/01/10 12:18:00;;;;;;;17.63;9.88;;;;;;;;;;5025718;28;20863;-87
2022/01/10 12:20:28;;;;;;;15.93;11.23;;;;;;;;;;5025809;28;20270;-87
2022/01/10 12:22:57;;;;;;;15.50;10.65;;;;;;;;;;5027430;28;20642;-86
2022/01/10 12:25:24;;;;;;;16.25;10.70;;;;;;;;;;5023528;28;20217;-87
2022/01/10 12:27:53;;;;;;;15.98;11.07;;;;;;;;;;5023229;28;20201;-86
2022/01/10 12:30:21;;;;;;;20.00;11.38;;;;;;;;;;5029128;28;20208;-87
2022/01/10 12:32:50;;;;;;;26.67;10.15;;;;;;;;;;5026590;28;20237;-86
2022/01/10 12:35:17;;;;;;;14.88;10.15;;;;;;;;;;5022566;28;20208;-86
2022/01/10 12:37:44;;;;;;;15.05;11.32;;;;;;;;;;5029695;28;20204;-86
2022/01/10 12:40:15;;;;;;;15.13;9.07;;;;;;;;;;5030623;28;20754;-86
2022/01/10 12:42:48;;;;;;;13.63;8.63;;;;;;;;;;5030423;28;20204;-87
2022/01/10 12:45:15;;;;;;;14.90;9.15;;;;;;;;;;5026845;28;20217;-87
2022/01/10 12:47:46;;;;;;;16.55;9.88;;;;;;;;;;5022360;28;20225;-87
2022/01/10 12:50:13;;;;;;;14.70;10.32;;;;;;;;;;5022930;28;20262;-87
2022/01/10 12:52:41;;;;;;;15.52;9.38;;;;;;;;;;5024731;28;20224;-87
2022/01/10 12:55:09;;;;;;;13.43;9.75;;;;;;;;;;5023927;28;20239;-86
2022/01/10 12:57:37;;;;;;;19.95;9.43;;;;;;;;;;5023005;28;20209;-86
2022/01/10 13:00:08;;;;;;;14.75;9.38;;;3.70;99.90;;;;;;5022951;28;20299;-86
2022/01/10 13:02:35;;;;;;;15.82;9.20;;;;;;;;;;5025389;28;20204;-87
2022/01/10 13:05:07;;;;;;;15.27;9.45;;;3.70;99.90;;;;;;5021868;28;20208;-87
2022/01/10 13:07:34;;;;;;;15.63;9.65;;;;;;;;;;5021856;28;20216;-87
2022/01/10 13:10:06;;;;;;;15.63;9.50;;;;;;;;;;5021388;28;20271;-86
2022/01/10 13:12:34;;;;;;;14.23;9.07;;;;;;;;;;5022491;28;20241;-87
2022/01/10 13:15:11;;;;;;;12.13;8.93;;;3.90;99.90;;;;;;5024362;28;20205;-85
2022/01/10 13:17:40;;;;;;;12.35;8.65;;;;;;;;;;5020728;28;20840;-86
2022/01/10 13:20:09;;;;;;;14.93;10.05;;;4.00;99.90;;;;;;5022381;28;20208;-87
2022/01/10 13:22:39;;;;;;;13.52;8.68;;;4.00;99.90;;;;;;5020284;28;20215;-87
2022/01/10 13:25:07;;;;;;;17.48;10.60;;;;;;;;;;5019903;28;20669;-87
2022/01/10 13:27:36;;;;;;;14.95;10.05;;;;;;;;;;5017871;28;20216;-87
2022/01/10 13:30:16;;;;;;;15.82;9.15;;;4.00;99.90;;;;;;5020584;28;20319;-87
2022/01/10 13:32:46;;;;;;;22.98;15.50;;;4.00;99.90;;;;;;5021575;28;20224;-86
2022/01/10 13:35:15;;;;;;;17.27;10.95;;;;;;;;;;5024044;28;20204;-87
2022/01/10 13:37:44;;;;;;;17.92;11.02;;;4.00;99.90;;;;;;5022084;28;20229;-87
2022/01/10 13:40:15;;;;;;;19.55;9.88;;;4.10;99.90;;;;;;5016980;28;20209;-87
2022/01/10 13:42:47;;;;;;;15.18;12.60;;;4.20;99.90;;;;;;5015232;28;20287;-87
2022/01/10 13:45:17;;;;;;;20.05;11.75;;;4.20;99.90;;;;;;5023804;28;20262;-87
2022/01/10 13:47:56;;;;;;;16.08;11.20;;;4.20;99.90;;;;;;5023330;28;20205;-87
2022/01/10 13:50:26;;;;;;;20.52;14.88;;;4.20;99.90;;;;;;5010348;28;20224;-87
2022/01/10 13:53:05;;;;;;;17.95;11.35;;;4.10;99.90;;;;;;5018304;28;20614;-87
2022/01/10 13:55:32;;;;;;;18.35;11.32;;;;;;;;;;5017390;28;20208;-87
2022/01/10 13:57:59;;;;;;;19.30;12.00;;;;;;;;;;5024479;28;20215;-87
2022/01/10 14:00:28;;;;;;;14.93;9.95;;;;;;;;;;5022473;28;20209;-87
2022/01/10 14:02:56;;;;;;;15.05;10.15;;;;;;;;;;5021429;28;20212;-86
2022/01/10 14:05:26;;;;;;;21.60;11.70;;;4.20;99.90;;;;;;5021688;28;20213;-87
2022/01/10 14:07:53;;;;;;;17.38;11.60;;;;;;;;;;5019365;28;20666;-87
2022/01/10 14:10:21;;;;;;;19.35;11.40;;;;;;;;;;5018748;28;20602;-87
2022/01/10 14:12:48;;;;;;;16.95;11.45;;;;;;;;;;5017854;28;20232;-86
2022/01/10 14:15:22;;;;;;;22.90;11.82;;;;;;;;;;5023798;28;20254;-87
2022/01/10 14:17:51;;;;;;;22.58;11.75;;;;;;;;;;5020633;28;20247;-87
2022/01/10 14:20:18;;;;;;;18.02;12.02;;;;;;;;;;5023392;28;20236;-86